2OH8 weather

Port-O-John Airport
Derby, Ohio, United States

Public forecast

Using degrees Fahrenheit for public forecast. Weather courtesy of forecast.io.

METAR (pilot weather report)

Closest report is Bolton Field, 7.5 nm (13.9 km) NNE. Retrieved 2019/05/19 17:45 UTC (40 minutes ago):

KTZR 191745Z 22019G31KT 10SM SCT065 BKN110 28/16 A2986

TAF (pilot weather forecast)

Closest forecast is Rickenbacker International Airport, 13.7 nm (25.3 km) E. Retrieved 2019/05/19 18:00 UTC (25 minutes ago):

TAF KLCK 191741Z 1918/2018 21021G38KT P6SM SCT050 BKN120 FM192200 21018G30KT 6SM -SHRA VCTS SCT020 OVC040CB TEMPO 1922/1924 3SM SHRA OVC020 FM200100 22014G24KT P6SM VCSH SCT020 BKN040 FM200600 23012G20KT P6SM SCT040 BKN080 FM201000 24010G18KT P6SM BKN015 FM201600 26012G20KT P6SM BKN035